Time;durP1;ratioP1;P1;durP2;ratioP2;P2;SDS_P1;SDS_P2;PMS_P1;PMS_P2;Temp;Humidity;BMP_temperature;BMP_pressure;BME280_temperature;BME280_humidity;BME280_pressure;Samples;Min_cycle;Max_cycle;Signal;HPM_P1;HPM_P2
2023/01/15 00:01:46;;;;;;;1999.90;999.90;;;6.90;1.00;;;;;;5034492;28;20283;-72
2023/01/15 00:04:12;;;;;;;1999.90;999.90;;;6.90;1.00;;;;;;5034651;28;20700;-71
2023/01/15 00:06:40;;;;;;;1999.90;999.90;;;6.90;1.00;;;;;;5035493;28;20164;-69
2023/01/15 00:09:10;;;;;;;1999.90;999.90;;;6.80;1.00;;;;;;5035206;28;20399;-69
2023/01/15 00:11:36;;;;;;;1999.90;999.90;;;6.70;1.00;;;;;;5035150;28;20430;-70
2023/01/15 00:14:02;;;;;;;1999.90;999.90;;;6.60;1.00;;;;;;5034871;28;20412;-70
2023/01/15 00:16:27;;;;;;;1999.90;999.90;;;6.60;1.00;;;;;;5034673;28;20175;-70
2023/01/15 00:18:59;;;;;;;1999.90;999.90;;;6.50;1.00;;;;;;5034559;28;20183;-70
2023/01/15 00:21:26;;;;;;;1999.90;999.90;;;6.40;1.00;;;;;;5034407;28;20455;-70
2023/01/15 00:29:22;;;;;;;1999.90;999.90;;;6.30;90.60;;;;;;5034308;28;20764;-70
2023/01/15 00:31:52;;;;;;;1999.90;999.90;;;6.30;99.90;;;;;;5034124;28;20427;-70
2023/01/15 00:34:18;;;;;;;1999.90;999.90;;;6.40;99.90;;;;;;5034189;28;20410;-70
2023/01/15 00:36:43;;;;;;;1999.90;999.90;;;6.40;99.90;;;;;;5034058;28;20795;-70
2023/01/15 00:39:09;;;;;;;1999.90;999.90;;;6.40;99.90;;;;;;5033791;28;20172;-69
2023/01/15 00:41:34;;;;;;;1999.90;999.90;;;6.30;99.90;;;;;;5033848;28;20207;-70
2023/01/15 00:44:00;;;;;;;1999.90;999.90;;;6.40;99.90;;;;;;5033685;28;20243;-69
2023/01/15 00:46:26;;;;;;;1999.90;999.90;;;6.30;99.90;;;;;;5033904;28;20801;-69
2023/01/15 00:48:52;;;;;;;1999.90;999.90;;;6.40;99.90;;;;;;5033794;28;20247;-70
2023/01/15 00:51:17;;;;;;;1999.90;999.90;;;6.40;99.90;;;;;;5033758;28;20476;-70
2023/01/15 00:53:43;;;;;;;1999.90;999.90;;;6.40;99.90;;;;;;5033671;28;20176;-70
2023/01/15 00:56:08;;;;;;;1999.90;999.90;;;6.40;99.90;;;;;;5033654;28;20172;-69
2023/01/15 00:58:34;;;;;;;1999.90;999.90;;;6.40;99.90;;;;;;5033663;28;20196;-70
2023/01/15 01:00:59;;;;;;;1999.90;999.90;;;6.40;89.20;;;;;;5033630;28;20200;-70
2023/01/15 01:03:26;;;;;;;1999.90;999.90;;;6.40;51.50;;;;;;5033609;28;20512;-70
2023/01/15 01:05:52;;;;;;;1999.90;999.90;;;6.50;16.60;;;;;;5033423;28;20218;-70
2023/01/15 01:08:18;;;;;;;1999.90;999.90;;;6.40;1.00;;;;;;5033457;28;20396;-71
2023/01/15 01:10:44;;;;;;;1999.90;999.90;;;6.50;1.00;;;;;;5033131;28;20192;-70
2023/01/15 01:13:10;;;;;;;1999.90;999.90;;;6.50;1.00;;;;;;5033343;28;20430;-69
2023/01/15 01:15:36;;;;;;;1999.90;999.90;;;6.50;1.00;;;;;;5034526;28;20773;-70
2023/01/15 01:18:03;;;;;;;1999.90;999.90;;;6.50;1.00;;;;;;5033287;28;20399;-69
2023/01/15 01:20:29;;;;;;;1999.90;999.90;;;6.60;1.00;;;;;;5032952;28;20453;-70
2023/01/15 01:22:54;;;;;;;1999.90;999.90;;;6.60;1.00;;;;;;5033157;28;20415;-71
2023/01/15 01:25:20;;;;;;;1999.90;999.90;;;6.60;1.00;;;;;;5033769;28;20922;-69
2023/01/15 01:27:46;;;;;;;1999.90;999.90;;;6.70;99.90;;;;;;5034433;28;20177;-69
2023/01/15 01:30:12;;;;;;;1999.90;999.90;;;6.70;99.90;;;;;;5034242;28;20188;-69
2023/01/15 01:32:38;;;;;;;1999.90;999.90;;;6.70;99.90;;;;;;5034058;28;20407;-69
2023/01/15 01:35:04;;;;;;;1999.90;999.90;;;6.80;39.60;;;;;;5034096;28;20406;-70
2023/01/15 01:37:30;;;;;;;1999.90;999.90;;;6.80;1.00;;;;;;5033168;28;20172;-70
2023/01/15 01:39:55;;;;;;;1999.90;999.90;;;6.70;1.00;;;;;;5033639;28;20426;-69
2023/01/15 01:42:22;;;;;;;1999.90;999.90;;;6.90;99.90;;;;;;5034245;28;20771;-70
2023/01/15 01:44:50;;;;;;;1999.90;999.90;;;6.90;99.90;;;;;;5035328;28;20503;-69
2023/01/15 01:47:21;;;;;;;1999.90;999.90;;;6.90;99.90;;;;;;5035055;28;20396;-70
2023/01/15 01:49:53;;;;;;;1999.90;999.90;;;6.90;99.90;;;;;;5034884;28;20932;-69
2023/01/15 01:52:26;;;;;;;1999.90;999.90;;;7.00;99.90;;;;;;5035337;28;20403;-69
2023/01/15 01:54:52;;;;;;;1999.90;999.90;;;7.00;89.30;;;;;;5034908;28;20435;-69
2023/01/15 01:57:19;;;;;;;1999.90;999.90;;;7.00;1.00;;;;;;5033841;28;20457;-69
2023/01/15 01:59:47;;;;;;;1999.90;999.90;;;7.00;1.00;;;;;;5032966;28;20411;-69
2023/01/15 02:02:14;;;;;;;1999.90;999.90;;;7.00;99.90;;;;;;5033602;28;20490;-69
2023/01/15 02:04:40;;;;;;;1999.90;999.90;;;7.00;99.90;;;;;;5032942;28;20975;-69
2023/01/15 02:07:06;;;;;;;1999.90;999.90;;;7.00;99.90;;;;;;5033227;28;20490;-69
2023/01/15 02:09:32;;;;;;;1999.90;999.90;;;7.00;1.00;;;;;;5032870;28;20454;-70
2023/01/15 02:12:07;;;;;;;1999.90;999.90;;;7.10;99.90;;;;;;5032644;28;20461;-69
2023/01/15 02:15:05;;;;;;;1999.90;999.90;;;7.00;99.90;;;;;;5033338;28;20498;-69
2023/01/15 02:17:44;;;;;;;1999.90;999.90;;;7.00;99.90;;;;;;5033354;28;20415;-69
2023/01/15 02:20:27;;;;;;;1999.90;999.90;;;7.00;1.00;;;;;;5033184;28;20426;-69
2023/01/15 02:23:08;;;;;;;1999.90;999.90;;;6.90;1.00;;;;;;5033103;28;20434;-70
2023/01/15 02:25:48;;;;;;;1999.90;999.90;;;7.00;1.00;;;;;;5033057;28;20398;-69
2023/01/15 02:28:24;;;;;;;1999.90;999.90;;;6.90;99.90;;;;;;5032981;28;20394;-69
2023/01/15 02:31:08;;;;;;;1999.90;999.90;;;6.90;99.90;;;;;;5032727;28;20427;-69
2023/01/15 02:33:39;;;;;;;1999.90;999.90;;;6.90;99.90;;;;;;5033179;28;20402;-69
2023/01/15 02:36:07;;;;;;;1999.90;999.90;;;6.90;1.00;;;;;;5032045;28;20396;-70
2023/01/15 02:38:37;;;;;;;1999.90;999.90;;;6.90;1.00;;;;;;5032066;28;20396;-69
2023/01/15 02:41:06;;;;;;;1999.90;999.90;;;6.90;1.00;;;;;;5032308;28;20504;-69
2023/01/15 02:43:35;;;;;;;1999.90;999.90;;;6.80;1.00;;;;;;5032409;28;20427;-69
2023/01/15 02:46:03;;;;;;;1999.90;999.90;;;6.90;1.00;;;;;;5032208;28;20406;-69
2023/01/15 02:48:32;;;;;;;1999.90;999.90;;;6.90;1.00;;;;;;5032101;28;20498;-70
2023/01/15 02:51:05;;;;;;;1999.90;999.90;;;6.80;1.00;;;;;;5031951;28;20431;-70
2023/01/15 02:53:31;;;;;;;1999.90;999.90;;;6.80;1.00;;;;;;5030963;28;20835;-70
2023/01/15 02:56:03;;;;;;;1999.90;999.90;;;6.80;1.00;;;;;;5031764;28;20417;-70
2023/01/15 02:58:33;;;;;;;1999.90;999.90;;;6.90;1.00;;;;;;5031851;28;20486;-70
2023/01/15 03:01:03;;;;;;;1999.90;999.90;;;6.90;1.00;;;;;;5031949;28;20459;-69
2023/01/15 03:03:43;;;;;;;1999.90;999.90;;;6.90;1.00;;;;;;5032248;28;20414;-70
2023/01/15 03:06:26;;;;;;;1999.90;999.90;;;6.90;1.00;;;;;;5032113;28;20425;-69
2023/01/15 03:08:52;;;;;;;1999.90;999.90;;;6.90;1.00;;;;;;5034384;28;20498;-69
2023/01/15 03:11:18;;;;;;;1999.90;999.90;;;7.00;99.90;;;;;;5035578;28;20530;-70
2023/01/15 03:13:57;;;;;;;1999.90;999.90;;;7.00;99.90;;;;;;5036344;28;20203;-69
2023/01/15 03:17:03;;;;;;;1999.90;999.90;;;7.00;1.00;;;;;;5036589;28;20445;-70
2023/01/15 03:19:40;;;;;;;1999.90;999.90;;;7.10;1.00;;;;;;4993704;28;20509;-69
2023/01/15 03:22:16;;;;;;;1999.90;999.90;;;7.10;99.90;;;;;;5032629;28;20991;-69
2023/01/15 03:24:53;;;;;;;1999.90;999.90;;;7.10;1.00;;;;;;5036462;28;20404;-70
2023/01/15 03:27:19;;;;;;;1999.90;999.90;;;7.10;91.80;;;;;;5036605;28;20412;-69
2023/01/15 03:29:49;;;;;;;1999.90;999.90;;;7.10;99.90;;;;;;5036532;28;20407;-69
2023/01/15 03:32:16;;;;;;;1999.90;999.90;;;7.10;1.00;;;;;;5035942;28;20912;-70
2023/01/15 03:34:45;;;;;;;1999.90;999.90;;;7.10;1.00;;;;;;5035633;28;20427;-70
2023/01/15 03:37:11;;;;;;;1999.90;999.90;;;7.20;99.90;;;;;;5035533;28;20458;-70
2023/01/15 03:39:38;;;;;;;1999.90;999.90;;;7.10;1.00;;;;;;5035293;28;20403;-70
2023/01/15 03:42:31;;;;;;;1999.90;999.90;;;7.10;1.00;;;;;;5036014;28;20801;-69
2023/01/15 03:45:04;;;;;;;1999.90;999.90;;;7.10;40.50;;;;;;5035758;28;20455;-70
2023/01/15 03:47:58;;;;;;;1999.90;999.90;;;7.10;1.00;;;;;;5035343;28;20399;-69
2023/01/15 03:50:41;;;;;;;1999.90;999.90;;;7.10;99.90;;;;;;5035137;28;20423;-70
2023/01/15 03:53:19;;;;;;;1999.90;999.90;;;7.10;99.90;;;;;;5035238;28;20387;-69
2023/01/15 03:56:00;;;;;;;1999.90;999.90;;;7.00;99.90;;;;;;5035397;28;20457;-71
2023/01/15 03:58:32;;;;;;;1999.90;999.90;;;7.10;86.70;;;;;;5035225;28;20395;-70
2023/01/15 04:01:01;;;;;;;1999.90;999.90;;;7.00;99.90;;;;;;5036695;28;20854;-70
2023/01/15 04:03:29;;;;;;;1999.90;999.90;;;7.10;1.00;;;;;;5035878;28;20407;-69
2023/01/15 04:05:57;;;;;;;1999.90;999.90;;;7.00;99.90;;;;;;5035711;28;20403;-69
2023/01/15 04:08:24;;;;;;;1999.90;999.90;;;7.00;1.00;;;;;;5034686;28;20403;-70
2023/01/15 04:10:57;;;;;;;1999.90;999.90;;;7.00;1.00;;;;;;5035647;28;20434;-69
2023/01/15 04:13:24;;;;;;;1999.90;999.90;;;7.00;99.90;;;;;;5036860;28;20410;-70
2023/01/15 04:15:50;;;;;;;1999.90;999.90;;;7.00;99.90;;;;;;5036984;28;20403;-69
2023/01/15 04:18:16;;;;;;;1999.90;999.90;;;7.00;1.00;;;;;;5036854;28;20908;-70
2023/01/15 04:20:43;;;;;;;1999.90;999.90;;;7.00;1.00;;;;;;5034686;28;20454;-70
2023/01/15 04:23:08;;;;;;;1999.90;999.90;;;6.90;1.00;;;;;;5034434;28;20916;-70
2023/01/15 04:25:34;;;;;;;1999.90;999.90;;;6.90;37.50;;;;;;5034206;28;20411;-70
2023/01/15 04:28:00;;;;;;;1999.90;999.90;;;7.00;99.90;;;;;;5034235;28;20172;-70
2023/01/15 04:30:25;;;;;;;1999.90;999.90;;;7.00;99.90;;;;;;5033993;28;20180;-70
2023/01/15 04:32:51;;;;;;;1999.90;999.90;;;7.00;99.90;;;;;;5035226;28;20188;-70
2023/01/15 04:35:18;;;;;;;1999.90;999.90;;;7.00;99.90;;;;;;5037049;28;20188;-70
2023/01/15 04:37:44;;;;;;;1999.90;999.90;;;7.10;1.00;;;;;;5036411;28;20940;-70
2023/01/15 04:44:05;;;;;;;1999.90;999.90;;;7.00;1.00;;;;;;5035706;28;20450;-70
2023/01/15 04:45:44;;;;;;;1999.90;999.90;;;7.00;59.40;;;;;;5034249;28;20993;-70
2023/01/15 04:48:09;;;;;;;1999.90;999.90;;;7.00;99.90;;;;;;5034551;28;20415;-70
2023/01/15 04:50:35;;;;;;;1999.90;999.90;;;7.00;1.00;;;;;;5034007;28;20415;-70
2023/01/15 04:53:00;;;;;;;1999.90;999.90;;;7.00;99.90;;;;;;5034158;28;20222;-69
2023/01/15 04:55:26;;;;;;;1999.90;999.90;;;7.00;1.00;;;;;;5034286;28;20180;-70
2023/01/15 04:57:52;;;;;;;1999.90;999.90;;;7.00;1.00;;;;;;5033977;28;20183;-70
2023/01/15 05:00:18;;;;;;;1999.90;999.90;;;7.00;1.00;;;;;;5034458;28;20238;-70
2023/01/15 05:02:43;;;;;;;1999.90;999.90;;;7.00;1.00;;;;;;5033977;28;20207;-69
2023/01/15 05:05:09;;;;;;;1999.90;999.90;;;7.00;1.00;;;;;;5034996;28;20419;-70
2023/01/15 05:07:34;;;;;;;1999.90;999.90;;;7.00;10.90;;;;;;5036685;28;20175;-69
2023/01/15 05:10:00;;;;;;;1999.90;999.90;;;7.40;45.60;;;;;;5036053;28;20176;-70
2023/01/15 05:12:25;;;;;;;1999.90;999.90;;;7.00;1.00;;;;;;5035949;28;20228;-72
2023/01/15 05:14:51;;;;;;;1999.90;999.90;;;7.00;3.40;;;;;;5035481;28;20182;-70
2023/01/15 05:17:17;;;;;;;1999.90;999.90;;;7.00;1.00;;;;;;5035492;28;20187;-70
2023/01/15 05:19:43;;;;;;;1999.90;999.90;;;7.00;1.00;;;;;;5035618;28;20824;-70
2023/01/15 05:22:08;;;;;;;1999.90;999.90;;;7.00;1.00;;;;;;5035753;28;20454;-70
2023/01/15 05:24:34;;;;;;;1999.90;999.90;;;7.10;1.00;;;;;;5035990;28;20234;-70
2023/01/15 05:27:00;;;;;;;1999.90;999.90;;;7.10;1.00;;;;;;5035052;28;20494;-70
2023/01/15 05:29:26;;;;;;;1999.90;999.90;;;7.00;1.00;;;;;;5035015;28;20165;-70
2023/01/15 05:31:51;;;;;;;1999.90;999.90;;;7.00;1.00;;;;;;5034671;28;20546;-70
2023/01/15 05:34:17;;;;;;;1999.90;999.90;;;7.00;30.50;;;;;;5034993;28;20180;-71
2023/01/15 05:36:43;;;;;;;1999.90;999.90;;;7.00;1.00;;;;;;5033728;28;20234;-70
2023/01/15 05:39:08;;;;;;;1999.90;999.90;;;7.00;1.00;;;;;;5032935;28;20176;-70
2023/01/15 05:41:49;;;;;;;1999.90;999.90;;;7.00;99.90;;;;;;5033429;28;20212;-70
2023/01/15 05:44:28;;;;;;;1999.90;999.90;;;7.00;1.00;;;;;;5034246;28;20414;-71
2023/01/15 05:47:04;;;;;;;1999.90;999.90;;;7.00;1.00;;;;;;5033400;28;20449;-69
2023/01/15 05:49:30;;;;;;;1999.90;999.90;;;7.00;1.00;;;;;;5033422;28;20395;-69
2023/01/15 05:51:59;;;;;;;1999.90;999.90;;;6.90;1.00;;;;;;5033135;28;20474;-70
2023/01/15 05:54:28;;;;;;;1999.90;999.90;;;6.90;99.90;;;;;;5032881;28;20469;-70
2023/01/15 05:56:54;;;;;;;1999.90;999.90;;;6.90;99.90;;;;;;5032844;28;20430;-70
2023/01/15 05:59:23;;;;;;;1999.90;999.90;;;6.80;99.90;;;;;;5032950;28;20478;-70
2023/01/15 06:01:49;;;;;;;1999.90;999.90;;;6.80;1.00;;;;;;5032845;28;20457;-71
2023/01/15 06:04:16;;;;;;;1999.90;999.90;;;6.80;1.00;;;;;;5033083;28;20399;-71
2023/01/15 06:06:42;;;;;;;1999.90;999.90;;;6.70;1.00;;;;;;5033195;28;20958;-73
2023/01/15 06:09:08;;;;;;;1999.90;999.90;;;6.70;18.30;;;;;;5032485;28;20503;-70
2023/01/15 06:11:34;;;;;;;1999.90;999.90;;;6.70;71.30;;;;;;5032274;28;20435;-70
2023/01/15 06:13:59;;;;;;;1999.90;999.90;;;6.70;86.00;;;;;;5032380;28;20461;-70
2023/01/15 06:16:26;;;;;;;1999.90;999.90;;;6.70;99.90;;;;;;5032214;28;20178;-70
2023/01/15 06:18:51;;;;;;;1999.90;999.90;;;6.70;99.90;;;;;;5032064;28;20255;-70
2023/01/15 06:21:17;;;;;;;1999.90;999.90;;;6.70;99.90;;;;;;5032076;28;20554;-72
2023/01/15 06:23:43;;;;;;;1999.90;999.90;;;6.60;99.90;;;;;;5032427;28;20186;-70
2023/01/15 06:26:15;;;;;;;1999.90;999.90;;;6.70;99.90;;;;;;5033115;28;20435;-71
2023/01/15 06:28:41;;;;;;;1999.90;999.90;;;6.60;99.90;;;;;;5032792;28;20403;-70
2023/01/15 06:31:09;;;;;;;1999.90;999.90;;;6.60;99.90;;;;;;5032854;28;20423;-70
2023/01/15 06:33:34;;;;;;;1999.90;999.90;;;6.60;99.90;;;;;;5032714;28;20793;-70
2023/01/15 06:36:08;;;;;;;1999.90;999.90;;;6.60;99.90;;;;;;5032600;28;20410;-70
2023/01/15 06:38:34;;;;;;;1999.90;999.90;;;6.60;99.90;;;;;;5032245;28;20653;-70
2023/01/15 06:41:01;;;;;;;1999.90;999.90;;;6.60;99.90;;;;;;5032187;28;20467;-70
2023/01/15 06:48:57;;;;;;;1999.90;999.90;;;6.60;99.90;;;;;;5032270;28;20406;-70
2023/01/15 06:51:23;;;;;;;1999.90;999.90;;;6.60;99.90;;;;;;5031776;28;20431;-70
2023/01/15 06:53:49;;;;;;;1999.90;999.90;;;6.60;99.90;;;;;;5031889;28;20473;-70
2023/01/15 06:56:14;;;;;;;1999.90;999.90;;;6.60;1.00;;;;;;5031818;28;20411;-70
2023/01/15 06:58:43;;;;;;;1999.90;999.90;;;6.60;1.00;;;;;;5033075;28;20179;-70
2023/01/15 07:01:13;;;;;;;1999.90;999.90;;;6.60;1.00;;;;;;5034411;28;20265;-71
2023/01/15 07:03:39;;;;;;;1999.90;999.90;;;6.60;1.00;;;;;;5032699;28;20418;-70
2023/01/15 07:06:09;;;;;;;1999.90;999.90;;;6.60;1.00;;;;;;5031718;28;20403;-70
2023/01/15 07:08:35;;;;;;;1999.90;999.90;;;6.60;1.00;;;;;;5031797;28;20555;-70
2023/01/15 07:11:03;;;;;;;1999.90;999.90;;;6.60;1.00;;;;;;5031714;28;20512;-70
2023/01/15 07:13:29;;;;;;;1999.90;999.90;;;6.60;1.00;;;;;;5031831;28;20892;-70
2023/01/15 07:15:56;;;;;;;1999.90;999.90;;;6.60;1.00;;;;;;5033365;28;20473;-70
2023/01/15 07:18:22;;;;;;;1999.90;999.90;;;6.60;1.00;;;;;;5031628;28;20180;-70
2023/01/15 07:20:47;;;;;;;1999.90;999.90;;;6.60;1.00;;;;;;5031577;28;20790;-70
2023/01/15 07:23:13;;;;;;;1999.90;999.90;;;6.60;1.00;;;;;;5031718;28;20186;-70
2023/01/15 07:25:38;;;;;;;1999.90;999.90;;;6.50;1.00;;;;;;5031807;28;20169;-70
2023/01/15 07:28:04;;;;;;;1999.90;999.90;;;6.50;1.00;;;;;;5031713;28;20179;-70
2023/01/15 07:30:30;;;;;;;1999.90;999.90;;;6.40;1.00;;;;;;5031545;28;20193;-70
2023/01/15 07:32:56;;;;;;;1999.90;999.90;;;6.40;1.00;;;;;;5031785;28;20230;-70
2023/01/15 07:35:21;;;;;;;1999.90;999.90;;;6.40;1.00;;;;;;5032847;28;20179;-71
2023/01/15 07:37:51;;;;;;;1999.90;999.90;;;6.30;1.00;;;;;;5033197;28;20403;-71
2023/01/15 07:40:17;;;;;;;1999.90;999.90;;;6.30;1.00;;;;;;5031769;28;20196;-70
2023/01/15 07:50:55;;;;;;;1999.90;999.90;;;6.30;1.00;;;;;;5031660;28;20947;-72
2023/01/15 07:53:20;;;;;;;1999.90;999.90;;;6.30;1.00;;;;;;5031969;28;20407;-72
2023/01/15 07:55:46;;;;;;;1999.90;999.90;;;6.20;1.00;;;;;;5035036;28;20180;-71
2023/01/15 07:58:11;;;;;;;1999.90;999.90;;;6.10;1.00;;;;;;5035455;28;20255;-71
2023/01/15 08:00:37;;;;;;;1999.90;999.90;;;5.90;1.00;;;;;;5035267;28;20606;-71
2023/01/15 08:03:02;;;;;;;1999.90;999.90;;;5.80;1.00;;;;;;5035737;28;20173;-73
2023/01/15 08:05:28;;;;;;;1999.90;999.90;;;5.70;1.00;;;;;;5035541;28;20169;-71
2023/01/15 08:07:53;;;;;;;1999.90;999.90;;;5.60;1.00;;;;;;5035424;28;20161;-71
2023/01/15 08:10:19;;;;;;;1999.90;999.90;;;5.40;1.00;;;;;;5035304;28;20187;-72
2023/01/15 08:15:37;;;;;;;1999.90;999.90;;;5.20;1.00;;;;;;5034869;28;20175;-72
2023/01/15 08:18:03;;;;;;;1999.90;999.90;;;5.00;30.30;;;;;;5034138;28;20461;-73
2023/01/15 08:20:29;;;;;;;1999.90;999.90;;;4.80;52.70;;;;;;5034715;28;20434;-72
2023/01/15 08:22:55;;;;;;;1999.90;999.90;;;4.60;85.70;;;;;;5034566;28;20848;-73
2023/01/15 08:25:23;;;;;;;1999.90;999.90;;;4.40;99.90;;;;;;5034470;28;20183;-73
2023/01/15 08:27:49;;;;;;;1999.90;999.90;;;4.40;99.90;;;;;;5034452;28;20164;-73
2023/01/15 08:30:18;;;;;;;1999.90;999.90;;;4.30;99.90;;;;;;5034087;28;20427;-73
2023/01/15 08:32:43;;;;;;;1999.90;999.90;;;4.30;99.90;;;;;;5034067;28;20168;-73
2023/01/15 08:35:09;;;;;;;1999.90;999.90;;;4.40;99.90;;;;;;5034104;28;20460;-73
2023/01/15 08:37:35;;;;;;;1999.90;999.90;;;4.40;99.90;;;;;;5033925;28;20232;-72
2023/01/15 08:40:00;;;;;;;1999.90;999.90;;;4.00;99.90;;;;;;5034074;28;20458;-72
2023/01/15 08:42:27;;;;;;;1999.90;999.90;;;4.50;99.90;;;;;;5034091;28;20717;-72
2023/01/15 08:44:52;;;;;;;1999.90;999.90;;;4.50;99.90;;;;;;5034006;28;20180;-72
2023/01/15 08:47:18;;;;;;;1999.90;999.90;;;4.60;99.90;;;;;;5033895;28;20552;-72
2023/01/15 08:49:45;;;;;;;1999.90;999.90;;;4.70;99.90;;;;;;5033652;28;20172;-72
2023/01/15 08:52:10;;;;;;;1999.90;999.90;;;4.80;99.90;;;;;;5033672;28;20574;-72
2023/01/15 08:54:36;;;;;;;1999.90;999.90;;;4.90;99.90;;;;;;5033795;28;20407;-73
2023/01/15 08:57:01;;;;;;;1999.90;999.90;;;4.90;99.90;;;;;;5033646;28;20502;-73
2023/01/15 08:59:27;;;;;;;1999.90;999.90;;;5.00;99.90;;;;;;5033517;28;20247;-73
2023/01/15 09:01:53;;;;;;;1999.90;999.90;;;5.10;99.90;;;;;;5033524;28;20196;-73
2023/01/15 09:04:20;;;;;;;1999.90;999.90;;;5.10;99.90;;;;;;5033474;28;20209;-73
2023/01/15 09:06:47;;;;;;;1999.90;999.90;;;5.20;99.90;;;;;;5033385;28;20174;-73
2023/01/15 09:09:13;;;;;;;1999.90;999.90;;;5.30;99.90;;;;;;5032141;28;20406;-72
2023/01/15 09:11:39;;;;;;;1999.90;999.90;;;5.30;99.90;;;;;;5033538;28;20515;-73
2023/01/15 09:14:09;;;;;;;1999.90;999.90;;;5.40;99.90;;;;;;5033417;28;20942;-72
2023/01/15 09:16:36;;;;;;;1999.90;999.90;;;5.50;99.90;;;;;;5033171;28;20409;-70
2023/01/15 09:19:03;;;;;;;1999.90;999.90;;;5.60;99.90;;;;;;5032998;28;20411;-72
2023/01/15 09:21:28;;;;;;;1999.90;999.90;;;5.60;95.70;;;;;;5033149;28;20475;-72
2023/01/15 09:23:54;;;;;;;1999.90;999.90;;;5.60;82.50;;;;;;5033415;28;20399;-72
2023/01/15 09:26:32;;;;;;;1999.90;999.90;;;5.70;36.90;;;;;;5033263;28;20695;-72
2023/01/15 09:28:58;;;;;;;1999.90;999.90;;;5.80;4.50;;;;;;5032977;28;20190;-72
2023/01/15 09:31:24;;;;;;;1999.90;999.90;;;5.90;1.00;;;;;;5032914;28;20434;-72
2023/01/15 09:33:50;;;;;;;1999.90;999.90;;;5.90;1.00;;;;;;5032942;28;20411;-72
2023/01/15 09:36:18;;;;;;;1999.90;999.90;;;6.00;1.00;;;;;;5032993;28;20411;-72
2023/01/15 09:38:44;;;;;;;1999.90;999.90;;;6.10;1.00;;;;;;5032673;28;20414;-73
2023/01/15 09:42:04;;;;;;;1999.90;999.90;;;6.20;1.00;;;;;;5032865;28;20471;-72
2023/01/15 09:44:15;;;;;;;1999.90;999.90;;;6.30;1.00;;;;;;5033048;28;20415;-72
2023/01/15 09:47:01;;;;;;;1999.90;999.90;;;6.30;1.00;;;;;;5034253;28;20887;-72
2023/01/15 09:49:56;;;;;;;1999.90;999.90;;;6.40;1.00;;;;;;5035909;28;20403;-72
2023/01/15 09:52:49;;;;;;;1999.90;999.90;;;6.40;1.00;;;;;;5035671;28;20401;-72
2023/01/15 09:55:27;;;;;;;1999.90;999.90;;;6.50;1.00;;;;;;5033406;28;20747;-72
2023/01/15 09:57:56;;;;;;;1999.90;999.90;;;6.60;1.00;;;;;;5032558;28;20406;-72
2023/01/15 10:00:24;;;;;;;1999.90;999.90;;;6.70;1.00;;;;;;5032564;28;20794;-73
2023/01/15 10:02:54;;;;;;;1999.90;999.90;;;6.70;99.90;;;;;;5032485;28;20823;-72
2023/01/15 10:05:37;;;;;;;1999.90;999.90;;;6.80;99.90;;;;;;5032812;28;20407;-72
2023/01/15 10:08:24;;;;;;;1999.90;999.90;;;6.90;99.90;;;;;;5032595;28;20406;-72
2023/01/15 10:10:55;;;;;;;1999.90;999.90;;;7.10;36.40;;;;;;5032576;28;20411;-70
2023/01/15 10:13:48;;;;;;;1999.90;999.90;;;7.10;99.90;;;;;;5032651;28;20763;-71
2023/01/15 10:16:30;;;;;;;1999.90;999.90;;;7.10;1.00;;;;;;5031830;28;20449;-72
2023/01/15 10:19:01;;;;;;;1999.90;999.90;;;7.10;25.40;;;;;;5032748;28;20505;-71
2023/01/15 10:21:32;;;;;;;1999.90;999.90;;;7.10;1.00;;;;;;5032357;28;20846;-72
2023/01/15 10:24:24;;;;;;;1999.90;999.90;;;7.20;99.90;;;;;;5032446;28;20496;-71
2023/01/15 10:26:57;;;;;;;1999.90;999.90;;;7.20;99.90;;;;;;5032346;28;20407;-72
2023/01/15 10:29:46;;;;;;;1999.90;999.90;;;7.20;99.90;;;;;;5032510;28;20908;-72
2023/01/15 10:32:24;;;;;;;1999.90;999.90;;;7.20;1.00;;;;;;5032248;28;20427;-72
2023/01/15 10:35:06;;;;;;;1999.90;999.90;;;7.20;1.00;;;;;;5034024;28;20434;-72
2023/01/15 10:37:32;;;;;;;1999.90;999.90;;;7.20;99.90;;;;;;5034849;28;20434;-72
2023/01/15 10:40:22;;;;;;;1999.90;999.90;;;7.30;1.00;;;;;;5032418;28;20419;-71
2023/01/15 10:43:00;;;;;;;1999.90;999.90;;;7.30;99.90;;;;;;5032261;28;20227;-72
2023/01/15 10:45:38;;;;;;;1999.90;999.90;;;7.30;1.00;;;;;;5032207;28;20434;-72
2023/01/15 10:48:22;;;;;;;1999.90;999.90;;;7.30;9.20;;;;;;5032067;28;20894;-72
2023/01/15 10:50:48;;;;;;;1999.90;999.90;;;7.40;99.90;;;;;;5032087;28;20514;-72
2023/01/15 10:53:22;;;;;;;1999.90;999.90;;;7.40;99.90;;;;;;5032422;28;20413;-72
2023/01/15 10:55:54;;;;;;;1999.90;999.90;;;7.40;99.90;;;;;;5034449;28;20399;-72
2023/01/15 10:58:22;;;;;;;1999.90;999.90;;;7.50;1.00;;;;;;5032104;28;20443;-72
2023/01/15 11:01:00;;;;;;;1999.90;999.90;;;7.60;1.00;;;;;;5031847;28;20488;-72
2023/01/15 11:03:38;;;;;;;1999.90;999.90;;;7.60;1.00;;;;;;5032415;28;20522;-71
2023/01/15 11:06:07;;;;;;;1999.90;999.90;;;7.70;1.00;;;;;;5034841;28;20800;-71
2023/01/15 11:08:34;;;;;;;1999.90;999.90;;;7.70;99.90;;;;;;5034809;28;20505;-71
2023/01/15 11:19:42;;;;;;;1999.90;999.90;;;7.90;1.00;;;;;;5034569;28;20410;-72
2023/01/15 11:22:17;;;;;;;1999.90;999.90;;;7.90;99.90;;;;;;5034455;28;20455;-72
2023/01/15 11:24:52;;;;;;;1999.90;999.90;;;8.00;1.00;;;;;;5033807;28;20449;-72
2023/01/15 11:27:24;;;;;;;1999.90;999.90;;;8.10;99.90;;;;;;5033379;28;20395;-72
2023/01/15 11:29:55;;;;;;;1999.90;999.90;;;8.90;99.90;;;;;;5036865;28;20388;-72
2023/01/15 11:32:33;;;;;;;1999.90;999.90;;;8.80;99.90;;;;;;5037093;28;20403;-71
2023/01/15 11:35:03;;;;;;;1999.90;999.90;;;9.20;99.90;;;;;;5036077;28;20893;-72
2023/01/15 11:37:29;;;;;;;1999.90;999.90;;;9.30;99.90;;;;;;5035340;28;20969;-72
2023/01/15 11:40:05;;;;;;;1999.90;999.90;;;8.80;1.00;;;;;;5035587;28;20489;-72
2023/01/15 11:51:13;;;;;;;1999.90;999.90;;;7.80;1.00;;;;;;5035555;28;20421;-73
2023/01/15 11:53:58;;;;;;;1999.90;999.90;;;8.10;5.30;;;;;;5035057;28;20414;-72
2023/01/15 11:56:27;;;;;;;1999.90;999.90;;;8.40;99.90;;;;;;5034883;28;20820;-72
2023/01/15 11:58:55;;;;;;;1999.90;999.90;;;8.40;1.00;;;;;;5034625;28;20409;-72
2023/01/15 12:01:34;;;;;;;1999.90;999.90;;;8.30;99.90;;;;;;5034696;28;20458;-72
2023/01/15 12:04:05;;;;;;;1999.90;999.90;;;8.20;99.90;;;;;;5034849;28;20906;-72
2023/01/15 12:06:35;;;;;;;1999.90;999.90;;;8.10;99.90;;;;;;5034728;28;20402;-72
2023/01/15 12:09:17;;;;;;;1999.90;999.90;;;8.30;1.00;;;;;;5034587;28;20475;-72
2023/01/15 12:11:58;;;;;;;1999.90;999.90;;;9.00;1.00;;;;;;5034598;28;20453;-72
2023/01/15 12:14:39;;;;;;;1999.90;999.90;;;9.60;99.90;;;;;;5034623;28;20774;-72
2023/01/15 12:17:30;;;;;;;1999.90;999.90;;;10.00;1.00;;;;;;5034660;28;20772;-72
2023/01/15 12:20:33;;;;;;;1999.90;999.90;;;11.20;99.90;;;;;;5036314;28;20777;-72
2023/01/15 12:23:11;;;;;;;1999.90;999.90;;;10.70;1.00;;;;;;5037596;28;20453;-72
2023/01/15 12:25:57;;;;;;;1999.90;999.90;;;10.70;1.00;;;;;;5036161;28;20526;-71
2023/01/15 12:28:36;;;;;;;1999.90;999.90;;;10.70;1.00;;;;;;5036282;28;20444;-70
2023/01/15 12:31:01;;;;;;;1999.90;999.90;;;10.80;1.00;;;;;;5036608;28;20438;-72
2023/01/15 12:33:48;;;;;;;1999.90;999.90;;;10.80;1.00;;;;;;5035711;28;20424;-72
2023/01/15 12:36:32;;;;;;;1999.90;999.90;;;11.00;1.00;;;;;;5036247;28;20210;-71
2023/01/15 12:39:00;;;;;;;1999.90;999.90;;;11.30;99.90;;;;;;5035896;28;20496;-71
2023/01/15 12:47:23;;;;;;;1999.90;999.90;;;11.60;99.90;;;;;;5034029;28;20397;-72
2023/01/15 12:49:54;;;;;;;1999.90;999.90;;;11.80;99.90;;;;;;5033933;28;20406;-72
2023/01/15 12:52:25;;;;;;;1999.90;999.90;;;11.90;99.90;;;;;;5034128;28;20454;-72
2023/01/15 12:55:05;;;;;;;1999.90;999.90;;;11.90;99.90;;;;;;5034062;28;20838;-72
2023/01/15 12:57:34;;;;;;;1999.90;999.90;;;12.10;99.90;;;;;;5036667;28;20403;-72
2023/01/15 13:00:28;;;;;;;1999.90;999.90;;;11.20;1.00;;;;;;5035539;28;20410;-72
2023/01/15 13:02:59;;;;;;;1999.90;999.90;;;11.10;99.90;;;;;;5036422;28;20459;-72
2023/01/15 13:05:32;;;;;;;1999.90;999.90;;;11.30;99.90;;;;;;5033618;28;20963;-72
2023/01/15 13:08:00;;;;;;;1999.90;999.90;;;11.30;99.90;;;;;;5033524;28;20447;-72
2023/01/15 13:10:33;;;;;;;1999.90;999.90;;;11.30;99.90;;;;;;5033261;28;20424;-72
2023/01/15 13:13:12;;;;;;;1999.90;999.90;;;11.40;99.90;;;;;;5033556;28;20480;-72
2023/01/15 13:15:41;;;;;;;1999.90;999.90;;;11.60;99.90;;;;;;5033417;28;20409;-72